sensor_id;sensor_type;location;lat;lon;timestamp;P1;durP1;ratioP1;P2;durP2;ratioP2
4508;SDS011;2267;48.816;9.230;2023-08-08T00:00:34;4.47;;;1.77;;
4508;SDS011;2267;48.816;9.230;2023-08-08T00:03:01;2.10;;;1.90;;
4508;SDS011;2267;48.816;9.230;2023-08-08T00:05:28;2.50;;;1.73;;
4508;SDS011;2267;48.816;9.230;2023-08-08T00:07:55;4.07;;;2.27;;
4508;SDS011;2267;48.816;9.230;2023-08-08T00:10:22;3.00;;;2.00;;
4508;SDS011;2267;48.816;9.230;2023-08-08T00:12:48;2.60;;;1.57;;
4508;SDS011;2267;48.816;9.230;2023-08-08T00:15:16;4.03;;;2.27;;
4508;SDS011;2267;48.816;9.230;2023-08-08T00:17:43;2.77;;;2.17;;
4508;SDS011;2267;48.816;9.230;2023-08-08T00:20:10;2.43;;;1.90;;
4508;SDS011;2267;48.816;9.230;2023-08-08T00:22:37;2.27;;;1.87;;
4508;SDS011;2267;48.816;9.230;2023-08-08T00:25:04;3.80;;;2.00;;
4508;SDS011;2267;48.816;9.230;2023-08-08T00:27:30;2.40;;;1.90;;
4508;SDS011;2267;48.816;9.230;2023-08-08T00:29:57;2.70;;;2.10;;
4508;SDS011;2267;48.816;9.230;2023-08-08T00:32:24;2.20;;;1.63;;
4508;SDS011;2267;48.816;9.230;2023-08-08T00:34:51;3.00;;;1.67;;
4508;SDS011;2267;48.816;9.230;2023-08-08T00:37:18;2.73;;;2.00;;
4508;SDS011;2267;48.816;9.230;2023-08-08T00:39:44;3.57;;;2.13;;
4508;SDS011;2267;48.816;9.230;2023-08-08T00:42:12;3.13;;;2.20;;
4508;SDS011;2267;48.816;9.230;2023-08-08T00:44:39;2.00;;;1.60;;
4508;SDS011;2267;48.816;9.230;2023-08-08T00:47:08;2.53;;;2.10;;
4508;SDS011;2267;48.816;9.230;2023-08-08T00:49:35;3.10;;;1.83;;
4508;SDS011;2267;48.816;9.230;2023-08-08T00:52:03;2.60;;;1.80;;
4508;SDS011;2267;48.816;9.230;2023-08-08T00:54:32;2.50;;;2.10;;
4508;SDS011;2267;48.816;9.230;2023-08-08T00:56:59;2.63;;;2.23;;
4508;SDS011;2267;48.816;9.230;2023-08-08T00:59:25;3.20;;;1.90;;
4508;SDS011;2267;48.816;9.230;2023-08-08T01:01:53;3.50;;;2.33;;
4508;SDS011;2267;48.816;9.230;2023-08-08T01:04:20;2.90;;;2.50;;
4508;SDS011;2267;48.816;9.230;2023-08-08T01:06:57;3.37;;;2.47;;
4508;SDS011;2267;48.816;9.230;2023-08-08T01:10:18;3.03;;;1.97;;
4508;SDS011;2267;48.816;9.230;2023-08-08T01:12:21;4.03;;;2.07;;
4508;SDS011;2267;48.816;9.230;2023-08-08T01:14:50;3.10;;;2.13;;
4508;SDS011;2267;48.816;9.230;2023-08-08T01:17:17;2.03;;;1.80;;
4508;SDS011;2267;48.816;9.230;2023-08-08T01:19:45;2.97;;;2.00;;
4508;SDS011;2267;48.816;9.230;2023-08-08T01:22:27;3.17;;;2.17;;
4508;SDS011;2267;48.816;9.230;2023-08-08T01:25:04;3.20;;;2.00;;
4508;SDS011;2267;48.816;9.230;2023-08-08T01:27:31;4.03;;;1.90;;
4508;SDS011;2267;48.816;9.230;2023-08-08T01:29:58;2.67;;;2.00;;
4508;SDS011;2267;48.816;9.230;2023-08-08T01:32:25;3.17;;;2.40;;
4508;SDS011;2267;48.816;9.230;2023-08-08T01:34:52;2.63;;;2.40;;
4508;SDS011;2267;48.816;9.230;2023-08-08T01:37:20;2.70;;;1.97;;
4508;SDS011;2267;48.816;9.230;2023-08-08T01:39:53;3.10;;;2.20;;
4508;SDS011;2267;48.816;9.230;2023-08-08T01:42:23;4.00;;;2.03;;
4508;SDS011;2267;48.816;9.230;2023-08-08T01:44:53;2.10;;;1.70;;
4508;SDS011;2267;48.816;9.230;2023-08-08T01:47:20;3.40;;;2.23;;
4508;SDS011;2267;48.816;9.230;2023-08-08T01:49:47;3.50;;;2.13;;
4508;SDS011;2267;48.816;9.230;2023-08-08T01:52:14;2.87;;;2.13;;
4508;SDS011;2267;48.816;9.230;2023-08-08T01:54:40;2.93;;;2.20;;
4508;SDS011;2267;48.816;9.230;2023-08-08T01:57:08;3.00;;;2.30;;
4508;SDS011;2267;48.816;9.230;2023-08-08T01:59:35;3.30;;;2.00;;
4508;SDS011;2267;48.816;9.230;2023-08-08T02:02:02;3.40;;;2.50;;
4508;SDS011;2267;48.816;9.230;2023-08-08T02:04:29;2.70;;;2.17;;
4508;SDS011;2267;48.816;9.230;2023-08-08T02:06:56;3.53;;;2.23;;
4508;SDS011;2267;48.816;9.230;2023-08-08T02:09:22;2.60;;;2.00;;
4508;SDS011;2267;48.816;9.230;2023-08-08T02:11:49;3.07;;;1.80;;
4508;SDS011;2267;48.816;9.230;2023-08-08T02:14:16;2.53;;;2.13;;
4508;SDS011;2267;48.816;9.230;2023-08-08T02:16:43;3.50;;;2.30;;
4508;SDS011;2267;48.816;9.230;2023-08-08T02:19:10;2.80;;;2.17;;
4508;SDS011;2267;48.816;9.230;2023-08-08T02:21:36;2.30;;;2.00;;
4508;SDS011;2267;48.816;9.230;2023-08-08T02:24:03;2.80;;;1.97;;
4508;SDS011;2267;48.816;9.230;2023-08-08T02:26:30;3.97;;;2.17;;
4508;SDS011;2267;48.816;9.230;2023-08-08T02:28:57;3.03;;;2.33;;
4508;SDS011;2267;48.816;9.230;2023-08-08T02:31:24;3.10;;;2.07;;
4508;SDS011;2267;48.816;9.230;2023-08-08T02:33:51;2.77;;;2.57;;
4508;SDS011;2267;48.816;9.230;2023-08-08T02:36:18;3.00;;;2.30;;
4508;SDS011;2267;48.816;9.230;2023-08-08T02:38:45;2.70;;;2.10;;
4508;SDS011;2267;48.816;9.230;2023-08-08T02:41:12;3.43;;;2.40;;
4508;SDS011;2267;48.816;9.230;2023-08-08T02:43:39;2.30;;;1.87;;
4508;SDS011;2267;48.816;9.230;2023-08-08T02:46:05;2.50;;;1.60;;
4508;SDS011;2267;48.816;9.230;2023-08-08T02:48:32;4.50;;;2.30;;
4508;SDS011;2267;48.816;9.230;2023-08-08T02:50:59;3.07;;;2.30;;
4508;SDS011;2267;48.816;9.230;2023-08-08T02:53:26;3.63;;;2.17;;
4508;SDS011;2267;48.816;9.230;2023-08-08T02:55:53;3.80;;;1.73;;
4508;SDS011;2267;48.816;9.230;2023-08-08T02:58:19;5.00;;;2.50;;
4508;SDS011;2267;48.816;9.230;2023-08-08T03:00:46;2.63;;;1.90;;
4508;SDS011;2267;48.816;9.230;2023-08-08T03:03:13;3.43;;;1.83;;
4508;SDS011;2267;48.816;9.230;2023-08-08T03:05:40;2.43;;;2.20;;
4508;SDS011;2267;48.816;9.230;2023-08-08T03:08:07;2.80;;;1.83;;
4508;SDS011;2267;48.816;9.230;2023-08-08T03:10:34;2.87;;;1.70;;
4508;SDS011;2267;48.816;9.230;2023-08-08T03:13:01;2.93;;;1.97;;
4508;SDS011;2267;48.816;9.230;2023-08-08T03:15:28;2.83;;;1.77;;
4508;SDS011;2267;48.816;9.230;2023-08-08T03:17:55;5.53;;;2.10;;
4508;SDS011;2267;48.816;9.230;2023-08-08T03:20:22;2.27;;;1.90;;
4508;SDS011;2267;48.816;9.230;2023-08-08T03:22:49;3.70;;;2.20;;
4508;SDS011;2267;48.816;9.230;2023-08-08T03:25:15;2.63;;;2.07;;
4508;SDS011;2267;48.816;9.230;2023-08-08T03:27:42;3.37;;;2.00;;
4508;SDS011;2267;48.816;9.230;2023-08-08T03:30:09;2.50;;;1.90;;
4508;SDS011;2267;48.816;9.230;2023-08-08T03:32:37;2.60;;;2.03;;
4508;SDS011;2267;48.816;9.230;2023-08-08T03:35:04;2.50;;;1.63;;
4508;SDS011;2267;48.816;9.230;2023-08-08T03:37:31;2.73;;;2.10;;
4508;SDS011;2267;48.816;9.230;2023-08-08T03:39:58;2.63;;;1.77;;
4508;SDS011;2267;48.816;9.230;2023-08-08T03:42:24;2.53;;;1.83;;
4508;SDS011;2267;48.816;9.230;2023-08-08T03:44:51;6.20;;;2.40;;
4508;SDS011;2267;48.816;9.230;2023-08-08T03:47:18;2.10;;;1.50;;
4508;SDS011;2267;48.816;9.230;2023-08-08T03:49:46;3.53;;;2.10;;
4508;SDS011;2267;48.816;9.230;2023-08-08T03:52:12;2.67;;;2.30;;
4508;SDS011;2267;48.816;9.230;2023-08-08T03:54:40;2.93;;;1.93;;
4508;SDS011;2267;48.816;9.230;2023-08-08T03:57:06;3.10;;;1.97;;
4508;SDS011;2267;48.816;9.230;2023-08-08T03:59:33;2.83;;;2.47;;
4508;SDS011;2267;48.816;9.230;2023-08-08T04:02:00;3.50;;;2.10;;
4508;SDS011;2267;48.816;9.230;2023-08-08T04:04:27;2.40;;;2.07;;
4508;SDS011;2267;48.816;9.230;2023-08-08T04:06:54;3.00;;;2.23;;
4508;SDS011;2267;48.816;9.230;2023-08-08T04:09:21;2.13;;;1.90;;
4508;SDS011;2267;48.816;9.230;2023-08-08T04:11:48;3.27;;;2.43;;
4508;SDS011;2267;48.816;9.230;2023-08-08T04:14:16;2.20;;;1.93;;
4508;SDS011;2267;48.816;9.230;2023-08-08T04:16:43;2.87;;;1.80;;
4508;SDS011;2267;48.816;9.230;2023-08-08T04:19:09;2.87;;;2.07;;
4508;SDS011;2267;48.816;9.230;2023-08-08T04:21:36;2.77;;;2.00;;
4508;SDS011;2267;48.816;9.230;2023-08-08T04:24:03;2.60;;;2.20;;
4508;SDS011;2267;48.816;9.230;2023-08-08T04:26:31;3.93;;;2.60;;
4508;SDS011;2267;48.816;9.230;2023-08-08T04:28:58;2.77;;;2.23;;
4508;SDS011;2267;48.816;9.230;2023-08-08T04:31:25;2.93;;;1.90;;
4508;SDS011;2267;48.816;9.230;2023-08-08T04:33:52;2.90;;;1.80;;
4508;SDS011;2267;48.816;9.230;2023-08-08T04:36:27;2.47;;;1.83;;
4508;SDS011;2267;48.816;9.230;2023-08-08T04:38:54;2.47;;;1.60;;
4508;SDS011;2267;48.816;9.230;2023-08-08T04:41:22;2.33;;;2.00;;
4508;SDS011;2267;48.816;9.230;2023-08-08T04:43:48;3.20;;;1.90;;
4508;SDS011;2267;48.816;9.230;2023-08-08T04:46:15;3.50;;;2.47;;
4508;SDS011;2267;48.816;9.230;2023-08-08T04:48:42;3.53;;;1.87;;
4508;SDS011;2267;48.816;9.230;2023-08-08T04:51:09;2.87;;;2.03;;
4508;SDS011;2267;48.816;9.230;2023-08-08T04:53:36;2.43;;;2.23;;
4508;SDS011;2267;48.816;9.230;2023-08-08T04:56:03;2.63;;;1.93;;
4508;SDS011;2267;48.816;9.230;2023-08-08T04:58:30;2.93;;;2.33;;
4508;SDS011;2267;48.816;9.230;2023-08-08T05:00:56;3.50;;;1.97;;
4508;SDS011;2267;48.816;9.230;2023-08-08T05:03:23;3.33;;;2.23;;
4508;SDS011;2267;48.816;9.230;2023-08-08T05:05:50;4.47;;;2.83;;
4508;SDS011;2267;48.816;9.230;2023-08-08T05:08:17;2.80;;;2.10;;
4508;SDS011;2267;48.816;9.230;2023-08-08T05:10:44;6.30;;;2.07;;
4508;SDS011;2267;48.816;9.230;2023-08-08T05:13:11;3.47;;;2.20;;
4508;SDS011;2267;48.816;9.230;2023-08-08T05:15:39;2.20;;;2.00;;
4508;SDS011;2267;48.816;9.230;2023-08-08T05:18:05;3.70;;;2.27;;
4508;SDS011;2267;48.816;9.230;2023-08-08T05:20:32;2.63;;;2.43;;
4508;SDS011;2267;48.816;9.230;2023-08-08T05:22:59;4.47;;;2.40;;
4508;SDS011;2267;48.816;9.230;2023-08-08T05:25:26;2.20;;;1.73;;
4508;SDS011;2267;48.816;9.230;2023-08-08T05:27:53;3.07;;;2.10;;
4508;SDS011;2267;48.816;9.230;2023-08-08T05:30:20;2.57;;;2.03;;
4508;SDS011;2267;48.816;9.230;2023-08-08T05:32:47;2.40;;;2.03;;
4508;SDS011;2267;48.816;9.230;2023-08-08T05:35:14;2.63;;;1.97;;
4508;SDS011;2267;48.816;9.230;2023-08-08T05:37:41;4.80;;;1.80;;
4508;SDS011;2267;48.816;9.230;2023-08-08T05:40:08;5.20;;;1.97;;
4508;SDS011;2267;48.816;9.230;2023-08-08T05:42:37;2.00;;;1.70;;
4508;SDS011;2267;48.816;9.230;2023-08-08T05:45:05;2.90;;;2.00;;
4508;SDS011;2267;48.816;9.230;2023-08-08T05:47:32;3.90;;;2.20;;
4508;SDS011;2267;48.816;9.230;2023-08-08T05:50:00;3.20;;;2.00;;
4508;SDS011;2267;48.816;9.230;2023-08-08T05:52:26;4.60;;;2.40;;
4508;SDS011;2267;48.816;9.230;2023-08-08T05:54:53;2.70;;;2.40;;
4508;SDS011;2267;48.816;9.230;2023-08-08T05:57:20;4.00;;;2.80;;
4508;SDS011;2267;48.816;9.230;2023-08-08T05:59:48;3.27;;;2.43;;
4508;SDS011;2267;48.816;9.230;2023-08-08T06:02:15;3.30;;;2.57;;
4508;SDS011;2267;48.816;9.230;2023-08-08T06:04:42;2.57;;;2.30;;
4508;SDS011;2267;48.816;9.230;2023-08-08T06:07:09;3.90;;;2.47;;
4508;SDS011;2267;48.816;9.230;2023-08-08T06:09:36;4.23;;;2.03;;
4508;SDS011;2267;48.816;9.230;2023-08-08T06:12:06;3.20;;;2.07;;
4508;SDS011;2267;48.816;9.230;2023-08-08T06:14:33;3.90;;;2.80;;
4508;SDS011;2267;48.816;9.230;2023-08-08T06:17:00;2.70;;;1.97;;
4508;SDS011;2267;48.816;9.230;2023-08-08T06:19:27;5.57;;;2.20;;
4508;SDS011;2267;48.816;9.230;2023-08-08T06:21:54;2.93;;;2.23;;
4508;SDS011;2267;48.816;9.230;2023-08-08T06:24:21;3.30;;;2.47;;
4508;SDS011;2267;48.816;9.230;2023-08-08T06:26:48;4.17;;;1.93;;
4508;SDS011;2267;48.816;9.230;2023-08-08T06:29:15;4.30;;;2.77;;
4508;SDS011;2267;48.816;9.230;2023-08-08T06:31:42;3.13;;;2.00;;
4508;SDS011;2267;48.816;9.230;2023-08-08T06:34:08;3.30;;;2.27;;
4508;SDS011;2267;48.816;9.230;2023-08-08T06:36:35;2.47;;;1.77;;
4508;SDS011;2267;48.816;9.230;2023-08-08T06:39:02;2.47;;;1.83;;
4508;SDS011;2267;48.816;9.230;2023-08-08T06:41:29;2.10;;;1.80;;
4508;SDS011;2267;48.816;9.230;2023-08-08T06:43:56;3.70;;;2.30;;
4508;SDS011;2267;48.816;9.230;2023-08-08T06:46:23;2.50;;;1.80;;
4508;SDS011;2267;48.816;9.230;2023-08-08T06:48:51;3.40;;;1.93;;
4508;SDS011;2267;48.816;9.230;2023-08-08T06:51:23;3.63;;;2.07;;
4508;SDS011;2267;48.816;9.230;2023-08-08T06:53:51;2.53;;;1.70;;
4508;SDS011;2267;48.816;9.230;2023-08-08T06:56:18;3.07;;;1.83;;
4508;SDS011;2267;48.816;9.230;2023-08-08T06:58:45;2.10;;;1.73;;
4508;SDS011;2267;48.816;9.230;2023-08-08T07:01:12;4.27;;;1.70;;
4508;SDS011;2267;48.816;9.230;2023-08-08T07:03:40;2.40;;;2.07;;
4508;SDS011;2267;48.816;9.230;2023-08-08T07:06:07;2.60;;;1.80;;
4508;SDS011;2267;48.816;9.230;2023-08-08T07:08:34;3.23;;;2.20;;
4508;SDS011;2267;48.816;9.230;2023-08-08T07:11:01;2.43;;;1.73;;
4508;SDS011;2267;48.816;9.230;2023-08-08T07:13:28;3.13;;;2.17;;
4508;SDS011;2267;48.816;9.230;2023-08-08T07:15:54;4.20;;;2.10;;
4508;SDS011;2267;48.816;9.230;2023-08-08T07:18:21;4.17;;;1.80;;
4508;SDS011;2267;48.816;9.230;2023-08-08T07:20:48;2.23;;;2.03;;
4508;SDS011;2267;48.816;9.230;2023-08-08T07:23:16;4.07;;;1.90;;
4508;SDS011;2267;48.816;9.230;2023-08-08T07:25:43;2.00;;;1.60;;
4508;SDS011;2267;48.816;9.230;2023-08-08T07:28:11;3.20;;;1.87;;
4508;SDS011;2267;48.816;9.230;2023-08-08T07:30:38;2.50;;;2.30;;
4508;SDS011;2267;48.816;9.230;2023-08-08T07:33:04;2.70;;;2.00;;
4508;SDS011;2267;48.816;9.230;2023-08-08T07:35:32;2.47;;;1.70;;
4508;SDS011;2267;48.816;9.230;2023-08-08T07:37:59;3.50;;;1.80;;
4508;SDS011;2267;48.816;9.230;2023-08-08T07:40:26;3.20;;;1.60;;
4508;SDS011;2267;48.816;9.230;2023-08-08T07:42:53;2.97;;;1.50;;
4508;SDS011;2267;48.816;9.230;2023-08-08T07:45:20;2.50;;;1.80;;
4508;SDS011;2267;48.816;9.230;2023-08-08T07:47:47;3.10;;;1.77;;
4508;SDS011;2267;48.816;9.230;2023-08-08T07:50:14;2.67;;;2.00;;
4508;SDS011;2267;48.816;9.230;2023-08-08T07:52:41;3.63;;;2.10;;
4508;SDS011;2267;48.816;9.230;2023-08-08T07:55:08;5.13;;;2.00;;
4508;SDS011;2267;48.816;9.230;2023-08-08T07:57:35;2.90;;;1.67;;
4508;SDS011;2267;48.816;9.230;2023-08-08T08:00:04;3.80;;;2.10;;
4508;SDS011;2267;48.816;9.230;2023-08-08T08:02:38;3.83;;;1.70;;
4508;SDS011;2267;48.816;9.230;2023-08-08T08:05:06;2.93;;;1.83;;
4508;SDS011;2267;48.816;9.230;2023-08-08T08:07:34;2.43;;;1.60;;
4508;SDS011;2267;48.816;9.230;2023-08-08T08:10:05;2.17;;;1.37;;
4508;SDS011;2267;48.816;9.230;2023-08-08T08:12:35;2.80;;;1.33;;
4508;SDS011;2267;48.816;9.230;2023-08-08T08:15:02;2.60;;;1.60;;
4508;SDS011;2267;48.816;9.230;2023-08-08T08:17:30;3.23;;;1.70;;
4508;SDS011;2267;48.816;9.230;2023-08-08T08:19:58;2.73;;;1.80;;
4508;SDS011;2267;48.816;9.230;2023-08-08T08:22:25;3.40;;;1.73;;
4508;SDS011;2267;48.816;9.230;2023-08-08T08:24:52;2.00;;;1.40;;
4508;SDS011;2267;48.816;9.230;2023-08-08T08:27:18;3.33;;;1.83;;
4508;SDS011;2267;48.816;9.230;2023-08-08T08:29:45;2.87;;;1.70;;
4508;SDS011;2267;48.816;9.230;2023-08-08T08:32:12;2.17;;;1.67;;
4508;SDS011;2267;48.816;9.230;2023-08-08T08:34:39;2.93;;;1.70;;
4508;SDS011;2267;48.816;9.230;2023-08-08T08:37:06;2.60;;;1.70;;
4508;SDS011;2267;48.816;9.230;2023-08-08T08:39:33;3.57;;;1.80;;
4508;SDS011;2267;48.816;9.230;2023-08-08T08:42:00;3.53;;;1.57;;
4508;SDS011;2267;48.816;9.230;2023-08-08T08:44:32;3.33;;;2.20;;
4508;SDS011;2267;48.816;9.230;2023-08-08T08:47:02;3.17;;;1.70;;
4508;SDS011;2267;48.816;9.230;2023-08-08T08:49:36;2.70;;;1.80;;
4508;SDS011;2267;48.816;9.230;2023-08-08T08:52:04;2.13;;;1.63;;
4508;SDS011;2267;48.816;9.230;2023-08-08T08:54:32;3.00;;;1.83;;
4508;SDS011;2267;48.816;9.230;2023-08-08T08:56:59;4.30;;;1.50;;
4508;SDS011;2267;48.816;9.230;2023-08-08T08:59:26;4.07;;;1.80;;
4508;SDS011;2267;48.816;9.230;2023-08-08T09:01:53;3.40;;;1.53;;
4508;SDS011;2267;48.816;9.230;2023-08-08T09:04:20;4.03;;;1.83;;
4508;SDS011;2267;48.816;9.230;2023-08-08T09:06:48;2.40;;;1.60;;
4508;SDS011;2267;48.816;9.230;2023-08-08T09:09:17;2.10;;;1.30;;
4508;SDS011;2267;48.816;9.230;2023-08-08T09:11:48;2.90;;;1.60;;
4508;SDS011;2267;48.816;9.230;2023-08-08T09:14:18;2.87;;;1.90;;
4508;SDS011;2267;48.816;9.230;2023-08-08T09:16:46;3.33;;;2.00;;
4508;SDS011;2267;48.816;9.230;2023-08-08T09:19:14;3.40;;;1.50;;
4508;SDS011;2267;48.816;9.230;2023-08-08T09:21:43;2.17;;;1.50;;
4508;SDS011;2267;48.816;9.230;2023-08-08T09:24:10;3.23;;;1.60;;
4508;SDS011;2267;48.816;9.230;2023-08-08T09:26:38;2.43;;;1.47;;
4508;SDS011;2267;48.816;9.230;2023-08-08T09:29:06;2.17;;;1.63;;
4508;SDS011;2267;48.816;9.230;2023-08-08T09:31:34;3.80;;;1.53;;
4508;SDS011;2267;48.816;9.230;2023-08-08T09:34:03;1.90;;;1.40;;
4508;SDS011;2267;48.816;9.230;2023-08-08T09:36:30;2.60;;;1.63;;
4508;SDS011;2267;48.816;9.230;2023-08-08T09:38:59;3.40;;;1.50;;
4508;SDS011;2267;48.816;9.230;2023-08-08T09:41:26;2.83;;;1.70;;
4508;SDS011;2267;48.816;9.230;2023-08-08T09:43:54;2.53;;;1.60;;
4508;SDS011;2267;48.816;9.230;2023-08-08T09:46:21;3.50;;;1.70;;
4508;SDS011;2267;48.816;9.230;2023-08-08T09:48:49;4.70;;;1.60;;
4508;SDS011;2267;48.816;9.230;2023-08-08T09:51:16;2.13;;;1.30;;
4508;SDS011;2267;48.816;9.230;2023-08-08T09:53:44;2.50;;;1.50;;
4508;SDS011;2267;48.816;9.230;2023-08-08T09:56:13;2.50;;;1.33;;
4508;SDS011;2267;48.816;9.230;2023-08-08T09:58:42;2.60;;;1.43;;
4508;SDS011;2267;48.816;9.230;2023-08-08T10:01:09;2.67;;;1.43;;
4508;SDS011;2267;48.816;9.230;2023-08-08T10:03:39;2.10;;;1.33;;
4508;SDS011;2267;48.816;9.230;2023-08-08T10:06:10;3.80;;;1.80;;
4508;SDS011;2267;48.816;9.230;2023-08-08T10:08:37;2.27;;;1.50;;
4508;SDS011;2267;48.816;9.230;2023-08-08T10:11:05;3.10;;;1.67;;
4508;SDS011;2267;48.816;9.230;2023-08-08T10:16:04;2.47;;;1.50;;
4508;SDS011;2267;48.816;9.230;2023-08-08T10:18:35;2.23;;;1.47;;
4508;SDS011;2267;48.816;9.230;2023-08-08T10:21:04;2.73;;;1.50;;
4508;SDS011;2267;48.816;9.230;2023-08-08T10:23:37;2.70;;;1.40;;
4508;SDS011;2267;48.816;9.230;2023-08-08T10:26:04;3.27;;;1.50;;
4508;SDS011;2267;48.816;9.230;2023-08-08T10:28:52;2.30;;;1.63;;
4508;SDS011;2267;48.816;9.230;2023-08-08T10:31:25;3.10;;;1.50;;
4508;SDS011;2267;48.816;9.230;2023-08-08T10:34:05;2.00;;;1.20;;
4508;SDS011;2267;48.816;9.230;2023-08-08T10:36:43;2.00;;;1.30;;
4508;SDS011;2267;48.816;9.230;2023-08-08T10:39:17;2.33;;;1.50;;
4508;SDS011;2267;48.816;9.230;2023-08-08T10:41:46;2.63;;;1.40;;
4508;SDS011;2267;48.816;9.230;2023-08-08T10:44:20;2.13;;;1.30;;
4508;SDS011;2267;48.816;9.230;2023-08-08T10:46:51;2.47;;;1.63;;
4508;SDS011;2267;48.816;9.230;2023-08-08T10:49:20;1.83;;;1.33;;
4508;SDS011;2267;48.816;9.230;2023-08-08T10:51:48;2.87;;;1.70;;
4508;SDS011;2267;48.816;9.230;2023-08-08T10:56:49;3.00;;;1.50;;
4508;SDS011;2267;48.816;9.230;2023-08-08T10:59:19;3.27;;;1.27;;
4508;SDS011;2267;48.816;9.230;2023-08-08T11:01:50;1.80;;;1.17;;
4508;SDS011;2267;48.816;9.230;2023-08-08T11:04:19;3.00;;;1.63;;
4508;SDS011;2267;48.816;9.230;2023-08-08T11:06:47;2.60;;;1.50;;
4508;SDS011;2267;48.816;9.230;2023-08-08T11:09:16;3.03;;;1.40;;
4508;SDS011;2267;48.816;9.230;2023-08-08T11:11:44;2.57;;;1.43;;
4508;SDS011;2267;48.816;9.230;2023-08-08T11:14:12;2.70;;;1.53;;
4508;SDS011;2267;48.816;9.230;2023-08-08T11:16:42;3.80;;;1.90;;
4508;SDS011;2267;48.816;9.230;2023-08-08T11:19:10;1.90;;;1.20;;
4508;SDS011;2267;48.816;9.230;2023-08-08T11:21:42;2.13;;;1.50;;
4508;SDS011;2267;48.816;9.230;2023-08-08T11:24:10;3.80;;;1.50;;
4508;SDS011;2267;48.816;9.230;2023-08-08T11:26:38;3.37;;;1.43;;
4508;SDS011;2267;48.816;9.230;2023-08-08T11:29:06;3.30;;;1.57;;
4508;SDS011;2267;48.816;9.230;2023-08-08T11:31:33;3.37;;;1.30;;
4508;SDS011;2267;48.816;9.230;2023-08-08T11:34:01;2.00;;;1.10;;
4508;SDS011;2267;48.816;9.230;2023-08-08T11:36:32;2.97;;;1.40;;
4508;SDS011;2267;48.816;9.230;2023-08-08T11:39:03;2.27;;;1.67;;
4508;SDS011;2267;48.816;9.230;2023-08-08T11:41:35;2.30;;;1.60;;
4508;SDS011;2267;48.816;9.230;2023-08-08T11:44:03;2.57;;;1.57;;
4508;SDS011;2267;48.816;9.230;2023-08-08T11:46:31;3.10;;;1.40;;
4508;SDS011;2267;48.816;9.230;2023-08-08T11:49:04;2.10;;;1.40;;
4508;SDS011;2267;48.816;9.230;2023-08-08T11:51:33;3.13;;;1.80;;
4508;SDS011;2267;48.816;9.230;2023-08-08T11:54:02;2.43;;;1.10;;
4508;SDS011;2267;48.816;9.230;2023-08-08T11:56:32;2.33;;;1.53;;
4508;SDS011;2267;48.816;9.230;2023-08-08T11:59:00;1.90;;;1.30;;
4508;SDS011;2267;48.816;9.230;2023-08-08T12:01:28;4.50;;;1.37;;
4508;SDS011;2267;48.816;9.230;2023-08-08T12:03:57;3.37;;;1.33;;
4508;SDS011;2267;48.816;9.230;2023-08-08T12:06:30;3.27;;;1.40;;
4508;SDS011;2267;48.816;9.230;2023-08-08T12:08:57;2.73;;;1.40;;
4508;SDS011;2267;48.816;9.230;2023-08-08T12:11:24;4.50;;;1.23;;
4508;SDS011;2267;48.816;9.230;2023-08-08T12:13:57;3.03;;;1.27;;
4508;SDS011;2267;48.816;9.230;2023-08-08T12:16:29;2.10;;;1.20;;
4508;SDS011;2267;48.816;9.230;2023-08-08T12:19:03;1.87;;;1.10;;
4508;SDS011;2267;48.816;9.230;2023-08-08T12:21:33;1.90;;;1.40;;
4508;SDS011;2267;48.816;9.230;2023-08-08T12:24:00;2.83;;;1.10;;
4508;SDS011;2267;48.816;9.230;2023-08-08T12:26:27;5.60;;;1.80;;
4508;SDS011;2267;48.816;9.230;2023-08-08T12:28:54;2.80;;;1.20;;
4508;SDS011;2267;48.816;9.230;2023-08-08T12:31:21;2.50;;;1.30;;
4508;SDS011;2267;48.816;9.230;2023-08-08T12:33:49;2.07;;;1.40;;
4508;SDS011;2267;48.816;9.230;2023-08-08T12:36:18;2.20;;;1.57;;
4508;SDS011;2267;48.816;9.230;2023-08-08T12:38:45;1.80;;;1.20;;
4508;SDS011;2267;48.816;9.230;2023-08-08T12:41:13;3.57;;;1.53;;
4508;SDS011;2267;48.816;9.230;2023-08-08T12:43:40;2.10;;;1.43;;
4508;SDS011;2267;48.816;9.230;2023-08-08T12:46:06;2.63;;;1.43;;
4508;SDS011;2267;48.816;9.230;2023-08-08T12:48:33;2.77;;;1.50;;
4508;SDS011;2267;48.816;9.230;2023-08-08T12:51:00;3.23;;;1.53;;
4508;SDS011;2267;48.816;9.230;2023-08-08T12:53:27;2.70;;;1.13;;
4508;SDS011;2267;48.816;9.230;2023-08-08T12:55:54;2.50;;;1.63;;
4508;SDS011;2267;48.816;9.230;2023-08-08T12:58:21;2.27;;;1.10;;
4508;SDS011;2267;48.816;9.230;2023-08-08T13:00:49;2.33;;;1.57;;
4508;SDS011;2267;48.816;9.230;2023-08-08T13:03:16;3.60;;;1.33;;
4508;SDS011;2267;48.816;9.230;2023-08-08T13:05:43;3.20;;;1.70;;
4508;SDS011;2267;48.816;9.230;2023-08-08T13:08:10;5.67;;;1.77;;
4508;SDS011;2267;48.816;9.230;2023-08-08T13:10:37;2.20;;;1.33;;
4508;SDS011;2267;48.816;9.230;2023-08-08T13:13:04;3.37;;;1.37;;
4508;SDS011;2267;48.816;9.230;2023-08-08T13:15:31;2.17;;;1.40;;
4508;SDS011;2267;48.816;9.230;2023-08-08T13:17:57;2.03;;;1.60;;
4508;SDS011;2267;48.816;9.230;2023-08-08T13:20:25;3.80;;;1.47;;
4508;SDS011;2267;48.816;9.230;2023-08-08T13:22:52;2.10;;;1.63;;
4508;SDS011;2267;48.816;9.230;2023-08-08T13:25:19;2.40;;;1.57;;
4508;SDS011;2267;48.816;9.230;2023-08-08T13:27:45;2.03;;;1.30;;
4508;SDS011;2267;48.816;9.230;2023-08-08T13:30:14;3.20;;;1.80;;
4508;SDS011;2267;48.816;9.230;2023-08-08T13:32:44;3.50;;;1.70;;
4508;SDS011;2267;48.816;9.230;2023-08-08T13:35:11;3.10;;;1.50;;
4508;SDS011;2267;48.816;9.230;2023-08-08T13:37:38;4.17;;;1.57;;
4508;SDS011;2267;48.816;9.230;2023-08-08T13:40:05;3.53;;;1.60;;
4508;SDS011;2267;48.816;9.230;2023-08-08T13:42:32;2.60;;;1.47;;
4508;SDS011;2267;48.816;9.230;2023-08-08T13:44:59;3.57;;;1.57;;
4508;SDS011;2267;48.816;9.230;2023-08-08T13:47:27;4.00;;;1.73;;
4508;SDS011;2267;48.816;9.230;2023-08-08T13:49:54;2.80;;;1.30;;
4508;SDS011;2267;48.816;9.230;2023-08-08T13:52:20;2.53;;;1.40;;
4508;SDS011;2267;48.816;9.230;2023-08-08T13:54:47;4.67;;;1.50;;
4508;SDS011;2267;48.816;9.230;2023-08-08T13:57:14;2.67;;;1.30;;
4508;SDS011;2267;48.816;9.230;2023-08-08T13:59:42;4.43;;;1.63;;
4508;SDS011;2267;48.816;9.230;2023-08-08T14:02:09;2.73;;;1.40;;
4508;SDS011;2267;48.816;9.230;2023-08-08T14:04:36;4.83;;;1.50;;
4508;SDS011;2267;48.816;9.230;2023-08-08T14:07:03;2.60;;;1.40;;
4508;SDS011;2267;48.816;9.230;2023-08-08T14:09:30;2.77;;;1.50;;
4508;SDS011;2267;48.816;9.230;2023-08-08T14:11:56;2.70;;;1.60;;
4508;SDS011;2267;48.816;9.230;2023-08-08T14:14:25;3.20;;;1.50;;
4508;SDS011;2267;48.816;9.230;2023-08-08T14:16:52;2.60;;;1.43;;
4508;SDS011;2267;48.816;9.230;2023-08-08T14:19:21;2.70;;;1.80;;
4508;SDS011;2267;48.816;9.230;2023-08-08T14:21:48;3.87;;;1.43;;
4508;SDS011;2267;48.816;9.230;2023-08-08T14:24:15;2.00;;;1.37;;
4508;SDS011;2267;48.816;9.230;2023-08-08T14:26:43;2.17;;;1.67;;
4508;SDS011;2267;48.816;9.230;2023-08-08T14:29:11;2.00;;;1.47;;
4508;SDS011;2267;48.816;9.230;2023-08-08T14:31:38;2.23;;;1.23;;
4508;SDS011;2267;48.816;9.230;2023-08-08T14:34:30;4.03;;;1.30;;
4508;SDS011;2267;48.816;9.230;2023-08-08T14:36:57;3.40;;;1.70;;
4508;SDS011;2267;48.816;9.230;2023-08-08T14:39:25;2.77;;;1.30;;
4508;SDS011;2267;48.816;9.230;2023-08-08T14:41:52;2.20;;;1.30;;
4508;SDS011;2267;48.816;9.230;2023-08-08T14:44:19;2.70;;;1.37;;
4508;SDS011;2267;48.816;9.230;2023-08-08T14:46:45;2.40;;;1.20;;
4508;SDS011;2267;48.816;9.230;2023-08-08T14:49:12;3.27;;;1.50;;
4508;SDS011;2267;48.816;9.230;2023-08-08T14:51:39;2.83;;;1.53;;
4508;SDS011;2267;48.816;9.230;2023-08-08T14:54:06;3.30;;;1.70;;
4508;SDS011;2267;48.816;9.230;2023-08-08T14:56:33;2.40;;;1.47;;
4508;SDS011;2267;48.816;9.230;2023-08-08T14:58:59;3.90;;;2.03;;
4508;SDS011;2267;48.816;9.230;2023-08-08T15:01:27;2.97;;;1.40;;
4508;SDS011;2267;48.816;9.230;2023-08-08T15:03:54;3.47;;;1.70;;
4508;SDS011;2267;48.816;9.230;2023-08-08T15:06:22;2.60;;;1.33;;
4508;SDS011;2267;48.816;9.230;2023-08-08T15:08:49;2.80;;;1.53;;
4508;SDS011;2267;48.816;9.230;2023-08-08T15:11:16;4.03;;;2.27;;
4508;SDS011;2267;48.816;9.230;2023-08-08T15:13:43;2.77;;;1.30;;
4508;SDS011;2267;48.816;9.230;2023-08-08T15:16:10;3.10;;;1.63;;
4508;SDS011;2267;48.816;9.230;2023-08-08T15:18:37;2.67;;;1.50;;
4508;SDS011;2267;48.816;9.230;2023-08-08T15:21:04;2.50;;;1.50;;
4508;SDS011;2267;48.816;9.230;2023-08-08T15:23:31;3.47;;;1.60;;